Time;durP1;ratioP1;P1;durP2;ratioP2;P2;SDS_P1;SDS_P2;PMS_P1;PMS_P2;Temp;Humidity;BMP_temperature;BMP_pressure;BME280_temperature;BME280_humidity;BME280_pressure;Samples;Min_cycle;Max_cycle;Signal;HPM_P1;HPM_P2
2024/04/21 00:02:23;;;;;;;;;;;4.50;99.90;;;;;;5460357;26;19935;-76
2024/04/21 00:04:51;;;;;;;;;;;4.50;99.90;;;;;;5393007;26;20237;-76
2024/04/21 00:07:17;;;;;;;;;;;4.40;99.90;;;;;;5460524;26;20347;-76
2024/04/21 00:09:44;;;;;;;;;;;4.40;99.90;;;;;;5494884;26;19935;-76
2024/04/21 00:12:11;;;;;;;;;;;4.30;99.90;;;;;;5525318;26;20248;-75
2024/04/21 00:14:37;;;;;;;;;;;4.30;99.90;;;;;;5522658;26;19936;-76
2024/04/21 00:17:04;;;;;;;;;;;4.30;99.90;;;;;;5427778;26;19928;-75
2024/04/21 00:19:31;;;;;;;;;;;4.20;99.90;;;;;;5479432;26;20347;-76
2024/04/21 00:21:57;;;;;;;;;;;4.20;99.90;;;;;;5462481;26;19928;-76
2024/04/21 00:24:28;;;;;;;;;;;4.20;99.90;;;;;;5475151;26;19928;-76
2024/04/21 00:26:55;;;;;;;;;;;4.20;99.90;;;;;;5452475;26;19974;-76
2024/04/21 00:29:20;;;;;;;;;;;4.10;99.90;;;;;;5423807;26;19928;-76
2024/04/21 00:31:47;;;;;;;;;;;4.10;99.90;;;;;;5452325;26;19932;-76
2024/04/21 00:34:14;;;;;;;;;;;4.10;99.90;;;;;;5422311;26;19932;-75
2024/04/21 00:36:41;;;;;;;;;;;4.10;99.90;;;;;;5452418;26;20245;-77
2024/04/21 00:39:07;;;;;;;;;;;4.10;99.90;;;;;;5475516;26;19939;-76
2024/04/21 00:41:35;;;;;;;;;;;4.10;99.90;;;;;;5439120;26;19928;-77
2024/04/21 00:44:01;;;;;;;;;;;4.00;99.90;;;;;;5448409;26;19931;-76
2024/04/21 00:46:28;;;;;;;;;;;4.00;99.90;;;;;;5457494;26;20439;-77
2024/04/21 00:48:55;;;;;;;;;;;4.00;99.90;;;;;;5460341;26;19932;-76
2024/04/21 00:51:22;;;;;;;;;;;4.00;99.90;;;;;;5404269;26;19929;-76
2024/04/21 00:53:52;;;;;;;;;;;4.00;99.90;;;;;;5451514;26;20313;-77
2024/04/21 00:56:21;;;;;;;;;;;4.00;99.90;;;;;;5506049;26;19991;-76
2024/04/21 00:58:48;;;;;;;;;;;4.00;99.90;;;;;;5422119;26;19940;-76
2024/04/21 01:01:15;;;;;;;;;;;4.00;99.90;;;;;;5480209;26;19934;-78
2024/04/21 01:03:42;;;;;;;;;;;4.00;99.90;;;;;;5448466;26;19929;-76
2024/04/21 01:06:09;;;;;;;;;;;4.00;99.90;;;;;;5421403;26;19968;-77
2024/04/21 01:08:36;;;;;;;;;;;4.00;99.90;;;;;;5433237;26;19928;-76
2024/04/21 01:11:04;;;;;;;;;;;4.00;99.90;;;;;;5474404;26;20266;-76
2024/04/21 01:13:30;;;;;;;;;;;4.00;99.90;;;;;;5463038;26;19932;-77
2024/04/21 01:15:57;;;;;;;;;;;3.90;99.90;;;;;;5452561;26;19928;-77
2024/04/21 01:18:23;;;;;;;;;;;3.90;99.90;;;;;;5421030;26;20416;-77
2024/04/21 01:20:50;;;;;;;;;;;3.90;99.90;;;;;;5451370;26;19928;-76
2024/04/21 01:23:18;;;;;;;;;;;3.90;99.90;;;;;;5423184;26;19937;-76
2024/04/21 01:25:46;;;;;;;;;;;3.90;99.90;;;;;;5422051;26;19940;-76
2024/04/21 01:28:13;;;;;;;;;;;3.90;99.90;;;;;;5463333;26;19936;-76
2024/04/21 01:30:40;;;;;;;;;;;3.90;99.90;;;;;;5493604;26;19935;-76
2024/04/21 01:33:07;;;;;;;;;;;3.90;99.90;;;;;;5456210;26;20339;-77
2024/04/21 01:35:34;;;;;;;;;;;3.90;99.90;;;;;;5457111;26;19928;-77
2024/04/21 01:38:00;;;;;;;;;;;3.80;99.90;;;;;;5501360;26;19928;-77
2024/04/21 01:40:27;;;;;;;;;;;3.80;99.90;;;;;;5461828;26;19954;-77
2024/04/21 01:42:53;;;;;;;;;;;3.80;99.90;;;;;;5441083;26;19929;-77
2024/04/21 01:45:22;;;;;;;;;;;3.80;99.90;;;;;;5471592;26;20251;-77
2024/04/21 01:47:49;;;;;;;;;;;3.80;99.90;;;;;;5477572;26;19934;-77
2024/04/21 01:50:16;;;;;;;;;;;3.80;99.90;;;;;;5492301;26;20347;-76
2024/04/21 01:52:43;;;;;;;;;;;3.70;99.90;;;;;;5479073;26;19939;-77
2024/04/21 01:55:10;;;;;;;;;;;3.70;99.90;;;;;;5465291;26;19935;-77
2024/04/21 01:57:36;;;;;;;;;;;3.70;99.90;;;;;;5453533;26;20018;-77
2024/04/21 02:00:04;;;;;;;;;;;3.70;99.90;;;;;;5489750;26;20279;-77
2024/04/21 02:02:32;;;;;;;;;;;3.70;99.90;;;;;;5420658;26;19940;-77
2024/04/21 02:04:59;;;;;;;;;;;3.70;99.90;;;;;;5455948;26;19928;-77
2024/04/21 02:07:26;;;;;;;;;;;3.70;99.90;;;;;;5453665;26;19928;-77
2024/04/21 02:09:53;;;;;;;;;;;3.60;99.90;;;;;;5475668;26;19936;-77
2024/04/21 02:12:20;;;;;;;;;;;3.60;99.90;;;;;;5420654;26;20361;-77
2024/04/21 02:14:47;;;;;;;;;;;3.60;99.90;;;;;;5445283;26;19928;-78
2024/04/21 02:17:12;;;;;;;;;;;3.50;99.90;;;;;;5474404;26;19935;-77
2024/04/21 02:19:40;;;;;;;;;;;3.60;99.90;;;;;;5483768;26;19934;-77
2024/04/21 02:22:08;;;;;;;;;;;3.50;99.90;;;;;;5460335;26;19935;-77
2024/04/21 02:24:42;;;;;;;;;;;3.40;99.90;;;;;;5480084;26;20347;-76
2024/04/21 02:27:09;;;;;;;;;;;3.30;99.90;;;;;;5403908;26;19936;-77
2024/04/21 02:29:36;;;;;;;;;;;3.30;99.90;;;;;;5460539;26;19937;-77
2024/04/21 02:32:03;;;;;;;;;;;3.30;99.90;;;;;;5497369;26;19935;-77
2024/04/21 02:34:30;;;;;;;;;;;3.30;99.90;;;;;;5486931;26;20540;-77
2024/04/21 02:36:57;;;;;;;;;;;3.20;99.90;;;;;;5465903;26;19934;-77
2024/04/21 02:39:23;;;;;;;;;;;3.20;99.90;;;;;;5527475;26;20379;-77
2024/04/21 02:41:50;;;;;;;;;;;3.20;99.90;;;;;;5464815;26;19935;-77
2024/04/21 02:44:17;;;;;;;;;;;3.20;99.90;;;;;;5491272;26;19927;-77
2024/04/21 02:46:45;;;;;;;;;;;3.20;99.90;;;;;;5453607;26;20250;-77
2024/04/21 02:49:13;;;;;;;;;;;3.10;99.90;;;;;;5490411;26;19928;-77
2024/04/21 02:51:39;;;;;;;;;;;3.10;99.90;;;;;;5453750;26;19964;-77
2024/04/21 02:54:07;;;;;;;;;;;3.10;99.90;;;;;;5470538;26;19936;-77
2024/04/21 02:56:34;;;;;;;;;;;3.10;99.90;;;;;;5457094;26;19990;-77
2024/04/21 02:59:01;;;;;;;;;;;3.00;99.90;;;;;;5453145;26;20356;-77
2024/04/21 03:01:28;;;;;;;;;;;3.00;99.90;;;;;;5451826;26;19940;-77
2024/04/21 03:03:54;;;;;;;;;;;3.10;99.90;;;;;;5470422;26;19929;-77
2024/04/21 03:06:22;;;;;;;;;;;3.10;99.90;;;;;;5517265;26;19959;-77
2024/04/21 03:08:48;;;;;;;;;;;3.00;99.90;;;;;;5449211;26;19928;-77
2024/04/21 03:11:15;;;;;;;;;;;3.10;99.90;;;;;;5450678;26;19935;-77
2024/04/21 03:13:42;;;;;;;;;;;3.00;99.90;;;;;;5423568;26;19940;-77
2024/04/21 03:16:09;;;;;;;;;;;3.10;99.90;;;;;;5485355;26;19927;-77
2024/04/21 03:18:35;;;;;;;;;;;3.00;99.90;;;;;;5501096;26;19927;-77
2024/04/21 03:21:02;;;;;;;;;;;3.00;99.90;;;;;;5456485;26;19936;-77
2024/04/21 03:23:29;;;;;;;;;;;2.90;99.90;;;;;;5491657;26;19928;-77
2024/04/21 03:25:56;;;;;;;;;;;2.90;99.90;;;;;;5453352;26;19956;-77
2024/04/21 03:28:23;;;;;;;;;;;2.80;99.90;;;;;;5454091;26;20372;-77
2024/04/21 03:31:00;;;;;;;;;;;2.80;99.90;;;;;;5472476;26;19931;-77
2024/04/21 03:33:26;;;;;;;;;;;2.80;99.90;;;;;;5453854;26;19932;-76
2024/04/21 03:36:03;;;;;;;;;;;2.70;99.90;;;;;;5453508;26;19929;-77
2024/04/21 03:38:30;;;;;;;;;;;2.70;99.90;;;;;;5400768;26;20252;-77
2024/04/21 03:40:57;;;;;;;;;;;2.70;99.90;;;;;;5508889;26;19984;-77
2024/04/21 03:43:24;;;;;;;;;;;2.70;99.90;;;;;;5420074;26;19935;-77
2024/04/21 03:45:51;;;;;;;;;;;2.60;99.90;;;;;;5481852;26;19927;-77
2024/04/21 03:48:19;;;;;;;;;;;2.60;99.90;;;;;;5465899;26;19929;-77
2024/04/21 03:50:46;;;;;;;;;;;2.50;99.90;;;;;;5459336;26;19928;-77
2024/04/21 03:53:14;;;;;;;;;;;2.50;99.90;;;;;;5463355;26;19960;-77
2024/04/21 03:55:40;;;;;;;;;;;2.50;99.90;;;;;;5453152;26;20347;-77
2024/04/21 03:58:07;;;;;;;;;;;2.50;99.90;;;;;;5452630;26;19936;-77
2024/04/21 04:00:36;;;;;;;;;;;2.50;99.90;;;;;;5487551;26;20133;-77
2024/04/21 04:03:03;;;;;;;;;;;2.50;99.90;;;;;;5482847;26;20510;-78
2024/04/21 04:05:29;;;;;;;;;;;2.50;99.90;;;;;;5459264;26;20255;-77
2024/04/21 04:07:57;;;;;;;;;;;2.50;99.90;;;;;;5493195;26;19934;-77
2024/04/21 04:10:23;;;;;;;;;;;2.60;99.90;;;;;;5458731;26;19940;-78
2024/04/21 04:12:50;;;;;;;;;;;2.60;99.90;;;;;;5453430;26;19935;-79
2024/04/21 04:15:17;;;;;;;;;;;2.60;99.90;;;;;;5458904;26;19998;-77
2024/04/21 04:17:44;;;;;;;;;;;2.70;99.90;;;;;;5526641;26;20329;-76
2024/04/21 04:20:11;;;;;;;;;;;2.70;99.90;;;;;;5447659;26;19928;-77
2024/04/21 04:22:38;;;;;;;;;;;2.70;99.90;;;;;;5500392;26;19939;-77
2024/04/21 04:25:05;;;;;;;;;;;2.70;99.90;;;;;;5493496;26;19928;-78
2024/04/21 04:27:31;;;;;;;;;;;2.80;99.90;;;;;;5467563;26;19976;-77
2024/04/21 04:29:58;;;;;;;;;;;2.80;99.90;;;;;;5481308;26;19986;-77
2024/04/21 04:32:28;;;;;;;;;;;2.80;99.90;;;;;;5519992;26;19927;-77
2024/04/21 04:34:54;;;;;;;;;;;2.80;99.90;;;;;;5525921;26;19940;-77
2024/04/21 04:37:20;;;;;;;;;;;2.80;99.90;;;;;;5500718;26;19935;-76
2024/04/21 04:39:47;;;;;;;;;;;2.80;99.90;;;;;;5474030;26;19947;-77
2024/04/21 04:42:14;;;;;;;;;;;2.80;99.90;;;;;;5440349;26;20252;-77
2024/04/21 04:44:41;;;;;;;;;;;2.90;99.90;;;;;;5489062;26;20351;-77
2024/04/21 04:47:08;;;;;;;;;;;2.80;99.90;;;;;;5453095;26;19935;-77
2024/04/21 04:49:34;;;;;;;;;;;3.00;99.90;;;;;;5451877;26;20362;-77
2024/04/21 04:52:01;;;;;;;;;;;2.90;99.90;;;;;;5496345;26;20744;-77
2024/04/21 04:54:27;;;;;;;;;;;2.90;99.90;;;;;;5488597;26;19928;-76
2024/04/21 04:56:54;;;;;;;;;;;2.90;99.90;;;;;;5479293;26;19993;-76
2024/04/21 04:59:21;;;;;;;;;;;3.00;99.90;;;;;;5428825;26;19939;-77
2024/04/21 05:01:48;;;;;;;;;;;3.00;99.90;;;;;;5458780;26;20251;-76
2024/04/21 05:04:15;;;;;;;;;;;3.00;99.90;;;;;;5468071;26;20545;-77
2024/04/21 05:06:42;;;;;;;;;;;3.00;99.90;;;;;;5462942;26;19959;-77
2024/04/21 05:09:09;;;;;;;;;;;2.90;99.90;;;;;;5470874;26;19940;-77
2024/04/21 05:11:36;;;;;;;;;;;3.00;99.90;;;;;;5486851;26;19928;-77
2024/04/21 05:14:03;;;;;;;;;;;3.00;99.90;;;;;;5491677;25;19928;-77
2024/04/21 05:16:30;;;;;;;;;;;3.00;99.90;;;;;;5469823;25;20246;-78
2024/04/21 05:18:56;;;;;;;;;;;3.00;99.90;;;;;;5461928;26;19954;-77
2024/04/21 05:21:21;;;;;;;;;;;3.00;99.90;;;;;;5513745;26;19934;-77
2024/04/21 05:23:48;;;;;;;;;;;3.00;99.90;;;;;;5456002;26;19928;-78
2024/04/21 05:26:15;;;;;;;;;;;3.00;99.90;;;;;;5457976;26;19940;-78
2024/04/21 05:28:42;;;;;;;;;;;3.00;99.90;;;;;;5463298;26;19927;-77
2024/04/21 05:31:13;;;;;;;;;;;3.00;99.90;;;;;;5526551;26;19955;-77
2024/04/21 05:33:40;;;;;;;;;;;3.10;99.90;;;;;;5480010;26;19928;-77
2024/04/21 05:36:06;;;;;;;;;;;3.10;99.90;;;;;;5398243;26;19943;-77
2024/04/21 05:38:35;;;;;;;;;;;3.10;99.90;;;;;;5453297;26;19940;-77
2024/04/21 05:41:03;;;;;;;;;;;3.10;99.90;;;;;;5464501;26;19993;-77
2024/04/21 05:43:30;;;;;;;;;;;3.10;99.90;;;;;;5491507;25;19928;-76
2024/04/21 05:46:03;;;;;;;;;;;3.20;99.90;;;;;;5464578;25;19938;-76
2024/04/21 05:48:30;;;;;;;;;;;3.20;99.90;;;;;;5456541;26;19992;-76
2024/04/21 05:50:57;;;;;;;;;;;3.30;99.90;;;;;;5503857;25;20308;-76
2024/04/21 05:53:24;;;;;;;;;;;3.30;99.90;;;;;;5457308;26;20345;-76
2024/04/21 05:55:51;;;;;;;;;;;3.40;99.90;;;;;;5453166;26;19936;-76
2024/04/21 05:58:18;;;;;;;;;;;3.40;99.90;;;;;;5513445;25;19934;-77
2024/04/21 06:00:45;;;;;;;;;;;3.40;99.90;;;;;;5515606;25;19934;-76
2024/04/21 06:03:11;;;;;;;;;;;3.50;99.90;;;;;;5464331;26;19939;-76
2024/04/21 06:05:38;;;;;;;;;;;3.50;99.90;;;;;;5432352;25;19980;-77
2024/04/21 06:08:06;;;;;;;;;;;3.50;99.90;;;;;;5463536;26;20247;-77
2024/04/21 06:10:32;;;;;;;;;;;3.50;99.90;;;;;;5432780;26;20678;-77
2024/04/21 06:12:59;;;;;;;;;;;3.60;99.90;;;;;;5487574;25;19934;-77
2024/04/21 06:15:26;;;;;;;;;;;3.60;99.90;;;;;;5486730;26;19931;-76
2024/04/21 06:17:53;;;;;;;;;;;3.70;99.90;;;;;;5463733;26;19935;-77
2024/04/21 06:20:20;;;;;;;;;;;3.70;99.90;;;;;;5465947;26;19939;-76
2024/04/21 06:22:46;;;;;;;;;;;3.70;99.90;;;;;;5430506;26;19928;-77
2024/04/21 06:25:13;;;;;;;;;;;3.70;99.90;;;;;;5490259;26;19928;-76
2024/04/21 06:27:40;;;;;;;;;;;3.80;99.90;;;;;;5520315;26;19927;-76
2024/04/21 06:30:07;;;;;;;;;;;3.80;99.90;;;;;;5493763;26;20318;-76
2024/04/21 06:32:34;;;;;;;;;;;3.90;99.90;;;;;;5493103;26;20325;-77
2024/04/21 06:35:00;;;;;;;;;;;3.90;99.90;;;;;;5476191;26;20336;-78
2024/04/21 06:37:27;;;;;;;;;;;4.00;99.90;;;;;;5464628;26;20419;-77
2024/04/21 06:39:54;;;;;;;;;;;4.00;99.90;;;;;;5427498;26;20230;-77
2024/04/21 06:42:21;;;;;;;;;;;4.10;99.90;;;;;;5490617;26;20357;-77
2024/04/21 06:44:47;;;;;;;;;;;4.10;99.90;;;;;;5481762;26;19939;-77
2024/04/21 06:47:14;;;;;;;;;;;4.20;99.90;;;;;;5505877;26;19935;-77
2024/04/21 06:49:41;;;;;;;;;;;4.20;99.90;;;;;;5478524;26;19935;-76
2024/04/21 06:52:08;;;;;;;;;;;4.20;99.90;;;;;;5509660;26;19934;-76
2024/04/21 06:54:35;;;;;;;;;;;4.30;99.90;;;;;;5454789;26;20698;-76
2024/04/21 06:57:02;;;;;;;;;;;4.30;99.90;;;;;;5466184;26;19931;-78
2024/04/21 06:59:29;;;;;;;;;;;4.40;99.90;;;;;;5493712;26;19955;-76
2024/04/21 07:01:56;;;;;;;;;;;4.50;99.90;;;;;;5485175;26;19928;-76
2024/04/21 07:04:23;;;;;;;;;;;4.50;99.90;;;;;;5401334;26;19929;-77
2024/04/21 07:06:49;;;;;;;;;;;4.50;99.90;;;;;;5442857;26;21734;-76
2024/04/21 07:09:16;;;;;;;;;;;4.60;99.90;;;;;;5469706;26;19935;-76
2024/04/21 07:11:43;;;;;;;;;;;4.70;99.90;;;;;;5448947;26;19976;-77
2024/04/21 07:14:10;;;;;;;;;;;4.70;99.90;;;;;;5469463;25;20340;-75
2024/04/21 07:16:40;;;;;;;;;;;4.70;99.90;;;;;;5468038;25;19928;-76
2024/04/21 07:19:08;;;;;;;;;;;4.80;99.90;;;;;;5469480;25;19931;-75
2024/04/21 07:21:35;;;;;;;;;;;4.80;99.90;;;;;;5484146;25;19927;-76
2024/04/21 07:24:02;;;;;;;;;;;4.90;99.90;;;;;;5459700;26;19977;-76
2024/04/21 07:26:29;;;;;;;;;;;5.00;99.90;;;;;;5488415;26;19932;-76
2024/04/21 07:28:55;;;;;;;;;;;5.00;99.90;;;;;;5452967;26;19934;-77
2024/04/21 07:31:22;;;;;;;;;;;5.10;99.90;;;;;;5459996;26;19935;-76
2024/04/21 07:33:49;;;;;;;;;;;5.10;99.90;;;;;;5476065;26;19928;-77
2024/04/21 07:36:16;;;;;;;;;;;5.20;99.90;;;;;;5474703;25;19928;-76
2024/04/21 07:38:42;;;;;;;;;;;5.20;99.90;;;;;;5471653;25;19934;-77
2024/04/21 07:41:09;;;;;;;;;;;5.30;99.90;;;;;;5501696;25;19927;-76
2024/04/21 07:43:36;;;;;;;;;;;5.40;99.90;;;;;;5469854;25;19927;-77
2024/04/21 07:46:03;;;;;;;;;;;5.40;99.90;;;;;;5458641;26;19928;-77
2024/04/21 07:48:30;;;;;;;;;;;5.50;99.90;;;;;;5468068;25;19951;-77
2024/04/21 07:50:57;;;;;;;;;;;5.50;99.90;;;;;;5516671;25;19934;-77
2024/04/21 07:53:24;;;;;;;;;;;5.60;99.90;;;;;;5438390;26;20672;-77
2024/04/21 07:56:12;;;;;;;;;;;5.60;99.90;;;;;;5465872;25;19932;-78
2024/04/21 07:58:38;;;;;;;;;;;5.70;99.90;;;;;;5453009;26;19927;-77
2024/04/21 08:01:06;;;;;;;;;;;5.80;99.90;;;;;;5481299;26;20350;-77
2024/04/21 08:03:33;;;;;;;;;;;5.90;99.90;;;;;;5475803;26;19936;-77
2024/04/21 08:06:00;;;;;;;;;;;5.90;99.90;;;;;;5513309;25;19939;-77
2024/04/21 08:08:28;;;;;;;;;;;6.00;99.90;;;;;;5501645;25;19927;-78
2024/04/21 08:11:01;;;;;;;;;;;6.10;99.90;;;;;;5441602;26;19928;-77
2024/04/21 08:13:27;;;;;;;;;;;6.10;99.90;;;;;;5459290;26;20344;-76
2024/04/21 08:15:57;;;;;;;;;;;6.20;99.90;;;;;;5402842;26;19935;-76
2024/04/21 08:18:26;;;;;;;;;;;6.20;99.90;;;;;;5490901;25;19997;-77
2024/04/21 08:20:52;;;;;;;;;;;6.30;99.90;;;;;;5461090;26;20259;-77
2024/04/21 08:23:17;;;;;;;;;;;6.30;99.90;;;;;;5436089;25;20244;-77
2024/04/21 08:25:46;;;;;;;;;;;6.40;99.90;;;;;;5481477;26;19934;-77
2024/04/21 08:28:12;;;;;;;;;;;6.50;99.90;;;;;;5428925;26;19936;-76
2024/04/21 08:30:38;;;;;;;;;;;6.50;99.90;;;;;;5461226;26;19928;-77
2024/04/21 08:33:04;;;;;;;;;;;6.60;99.90;;;;;;5452078;26;19935;-77
2024/04/21 08:35:29;;;;;;;;;;;6.60;99.90;;;;;;5483666;25;19934;-76
2024/04/21 08:37:56;;;;;;;;;;;6.70;99.90;;;;;;5456753;26;19928;-79
2024/04/21 08:40:23;;;;;;;;;;;6.80;99.90;;;;;;5522044;25;20377;-79
2024/04/21 08:42:50;;;;;;;;;;;6.70;99.90;;;;;;5516903;25;19931;-79
2024/04/21 08:45:19;;;;;;;;;;;6.80;99.90;;;;;;5434987;26;19927;-80
2024/04/21 08:47:46;;;;;;;;;;;6.80;99.90;;;;;;5438782;26;19936;-79
2024/04/21 08:50:13;;;;;;;;;;;6.80;99.90;;;;;;5483320;25;19927;-79
2024/04/21 08:52:40;;;;;;;;;;;6.90;99.90;;;;;;5502025;25;19958;-78
2024/04/21 08:55:10;;;;;;;;;;;6.90;99.90;;;;;;5468297;26;19992;-79
2024/04/21 08:57:37;;;;;;;;;;;7.00;99.90;;;;;;5507320;25;20375;-79
2024/04/21 09:00:04;;;;;;;;;;;7.10;99.90;;;;;;5498082;25;19927;-79
2024/04/21 09:02:31;;;;;;;;;;;7.00;99.90;;;;;;5467465;25;19934;-79
2024/04/21 09:04:58;;;;;;;;;;;7.00;99.90;;;;;;5460412;26;19936;-79
2024/04/21 09:07:25;;;;;;;;;;;7.00;99.90;;;;;;5459423;26;19928;-80
2024/04/21 09:09:53;;;;;;;;;;;7.00;99.90;;;;;;5460650;26;19928;-76
2024/04/21 09:12:20;;;;;;;;;;;7.00;99.90;;;;;;5457120;26;19936;-76
2024/04/21 09:14:50;;;;;;;;;;;7.00;99.90;;;;;;5451371;26;19935;-76
2024/04/21 09:17:16;;;;;;;;;;;7.00;99.90;;;;;;5452000;26;20576;-77
2024/04/21 09:19:45;;;;;;;;;;;7.10;99.90;;;;;;5454062;26;19929;-77
2024/04/21 09:22:12;;;;;;;;;;;7.20;99.90;;;;;;5451583;26;19936;-76
2024/04/21 09:24:39;;;;;;;;;;;7.30;99.90;;;;;;5452333;26;19929;-77
2024/04/21 09:27:06;;;;;;;;;;;7.40;99.90;;;;;;5467185;26;20350;-76
2024/04/21 09:29:33;;;;;;;;;;;7.40;99.90;;;;;;5439618;26;20051;-75
2024/04/21 09:32:01;;;;;;;;;;;7.40;99.90;;;;;;5459785;26;20349;-77
2024/04/21 09:34:26;;;;;;;;;;;7.40;99.90;;;;;;5404948;26;19936;-76
2024/04/21 09:36:55;;;;;;;;;;;7.30;99.90;;;;;;5421163;26;19936;-78
2024/04/21 09:39:22;;;;;;;;;;;7.20;99.90;;;;;;5427256;26;19994;-76
2024/04/21 09:41:50;;;;;;;;;;;7.30;99.90;;;;;;5456856;26;19935;-75
2024/04/21 09:44:17;;;;;;;;;;;7.20;99.90;;;;;;5421310;26;19929;-76
2024/04/21 09:46:47;;;;;;;;;;;7.20;99.90;;;;;;5474920;26;19934;-76
2024/04/21 09:49:17;;;;;;;;;;;7.10;99.90;;;;;;5461819;26;19927;-77
2024/04/21 09:51:45;;;;;;;;;;;7.20;99.90;;;;;;5507930;26;19936;-77
2024/04/21 09:54:13;;;;;;;;;;;7.10;99.90;;;;;;5472630;26;19927;-76
2024/04/21 09:56:40;;;;;;;;;;;7.10;99.90;;;;;;5434059;26;19929;-76
2024/04/21 09:59:08;;;;;;;;;;;7.10;99.90;;;;;;5446769;26;20310;-76
2024/04/21 10:01:36;;;;;;;;;;;7.10;99.90;;;;;;5493540;26;19928;-76
2024/04/21 10:04:03;;;;;;;;;;;7.10;99.90;;;;;;5437904;26;19994;-76
2024/04/21 10:06:30;;;;;;;;;;;7.20;99.90;;;;;;5444551;26;19929;-75
2024/04/21 10:09:03;;;;;;;;;;;7.20;99.90;;;;;;5424222;26;19928;-76
2024/04/21 10:11:30;;;;;;;;;;;7.20;99.90;;;;;;5438105;26;19960;-75
2024/04/21 10:13:58;;;;;;;;;;;7.20;99.90;;;;;;5490686;26;19927;-76
2024/04/21 10:16:26;;;;;;;;;;;7.40;99.90;;;;;;5519932;25;19996;-75
2024/04/21 10:19:06;;;;;;;;;;;7.40;99.90;;;;;;5529377;25;19935;-77
2024/04/21 10:21:32;;;;;;;;;;;7.50;99.90;;;;;;5502670;25;19934;-75
2024/04/21 10:23:58;;;;;;;;;;;7.70;99.90;;;;;;5460881;25;19931;-76
2024/04/21 10:26:26;;;;;;;;;;;7.80;99.90;;;;;;5473779;26;19939;-76
2024/04/21 10:29:06;;;;;;;;;;;7.80;99.90;;;;;;5481803;26;20338;-75
2024/04/21 10:31:33;;;;;;;;;;;7.80;99.90;;;;;;5491539;26;19993;-75
2024/04/21 10:34:09;;;;;;;;;;;7.90;99.90;;;;;;5429629;26;19935;-76
2024/04/21 10:36:45;;;;;;;;;;;8.30;99.90;;;;;;5459566;26;19936;-75
2024/04/21 10:39:32;;;;;;;;;;;8.60;99.90;;;;;;5462460;26;19928;-75
2024/04/21 10:42:00;;;;;;;;;;;8.90;99.90;;;;;;5538722;25;19935;-76
2024/04/21 10:44:27;;;;;;;;;;;9.00;99.90;;;;;;5487836;26;19943;-77
2024/04/21 10:46:55;;;;;;;;;;;9.20;99.90;;;;;;5512295;25;19993;-77
2024/04/21 10:49:22;;;;;;;;;;;9.30;99.90;;;;;;5510543;26;19936;-77
2024/04/21 10:51:48;;;;;;;;;;;9.30;98.90;;;;;;5427662;26;19935;-76
2024/04/21 10:54:15;;;;;;;;;;;9.20;99.90;;;;;;5466048;26;19967;-77
2024/04/21 10:56:44;;;;;;;;;;;9.00;99.90;;;;;;5465579;26;19935;-77
2024/04/21 10:59:11;;;;;;;;;;;8.90;99.20;;;;;;5491757;26;19978;-77
2024/04/21 11:01:42;;;;;;;;;;;9.10;99.90;;;;;;5459356;26;20401;-76
2024/04/21 11:04:08;;;;;;;;;;;9.40;99.90;;;;;;5400039;26;20508;-77
2024/04/21 11:06:34;;;;;;;;;;;9.60;99.70;;;;;;5445184;26;19938;-76
2024/04/21 11:09:04;;;;;;;;;;;9.80;99.30;;;;;;5458981;26;20336;-77
2024/04/21 11:11:29;;;;;;;;;;;10.10;99.20;;;;;;5496121;26;19975;-76
2024/04/21 11:13:55;;;;;;;;;;;10.20;98.60;;;;;;5464529;26;20404;-77
2024/04/21 11:16:28;;;;;;;;;;;10.10;97.50;;;;;;5466996;26;20352;-77
2024/04/21 11:18:54;;;;;;;;;;;10.00;97.50;;;;;;5432153;25;19927;-75
2024/04/21 11:21:21;;;;;;;;;;;10.10;98.70;;;;;;5475717;25;19991;-76
2024/04/21 11:23:49;;;;;;;;;;;10.00;98.20;;;;;;5456822;26;20659;-77
2024/04/21 11:26:36;;;;;;;;;;;9.70;97.10;;;;;;5451245;26;19993;-75
2024/04/21 11:29:03;;;;;;;;;;;9.50;97.20;;;;;;5399243;26;19936;-76
2024/04/21 11:31:29;;;;;;;;;;;9.50;97.70;;;;;;5429085;26;19928;-77
2024/04/21 11:34:02;;;;;;;;;;;9.50;97.30;;;;;;5463023;26;19935;-78
2024/04/21 11:36:29;;;;;;;;;;;9.70;97.60;;;;;;5450422;26;19935;-78
2024/04/21 11:38:56;;;;;;;;;;;9.80;97.40;;;;;;5414495;26;19939;-77
2024/04/21 11:41:22;;;;;;;;;;;9.90;96.40;;;;;;5482931;25;19927;-75
2024/04/21 11:43:49;;;;;;;;;;;10.00;97.20;;;;;;5485215;26;19960;-75
2024/04/21 11:46:19;;;;;;;;;;;10.20;96.80;;;;;;5430385;25;20352;-78
2024/04/21 11:48:53;;;;;;;;;;;10.50;96.00;;;;;;5464868;26;20331;-76
2024/04/21 11:51:20;;;;;;;;;;;10.80;94.80;;;;;;5433755;26;19988;-76
2024/04/21 11:53:47;;;;;;;;;;;10.80;94.10;;;;;;5484170;26;19934;-75
2024/04/21 11:56:17;;;;;;;;;;;10.60;94.20;;;;;;5458844;26;19928;-78
2024/04/21 11:58:51;;;;;;;;;;;10.50;95.00;;;;;;5500788;25;19938;-75
2024/04/21 12:01:17;;;;;;;;;;;10.60;94.50;;;;;;5452368;26;19944;-75
2024/04/21 12:03:44;;;;;;;;;;;10.80;94.60;;;;;;5438057;26;20425;-77
2024/04/21 12:06:14;;;;;;;;;;;10.90;94.40;;;;;;5496778;25;19959;-75
2024/04/21 12:08:40;;;;;;;;;;;11.00;94.60;;;;;;5481552;26;19993;-75
2024/04/21 12:11:06;;;;;;;;;;;11.00;93.40;;;;;;5454445;26;19936;-75
2024/04/21 12:13:32;;;;;;;;;;;11.00;93.80;;;;;;5458636;26;19935;-76
2024/04/21 12:15:57;;;;;;;;;;;11.20;94.10;;;;;;5438944;26;19935;-77
2024/04/21 12:18:25;;;;;;;;;;;11.30;93.60;;;;;;5478394;26;20269;-78
2024/04/21 12:20:53;;;;;;;;;;;11.20;93.10;;;;;;5486947;26;19928;-77
2024/04/21 12:23:19;;;;;;;;;;;11.10;94.20;;;;;;5399408;26;19936;-76
2024/04/21 12:25:45;;;;;;;;;;;11.10;94.20;;;;;;5490761;26;19928;-75
2024/04/21 12:28:10;;;;;;;;;;;11.00;93.60;;;;;;5457340;26;19928;-75
2024/04/21 12:30:36;;;;;;;;;;;10.90;92.90;;;;;;5464415;26;19928;-76
2024/04/21 12:33:02;;;;;;;;;;;11.10;92.70;;;;;;5434588;26;19934;-76
2024/04/21 12:35:28;;;;;;;;;;;11.30;92.40;;;;;;5464124;26;19935;-77
2024/04/21 12:37:55;;;;;;;;;;;11.40;91.70;;;;;;5429860;26;19928;-76
2024/04/21 12:40:22;;;;;;;;;;;11.60;92.80;;;;;;5470682;26;19993;-77
2024/04/21 12:42:47;;;;;;;;;;;11.90;92.80;;;;;;5464713;26;19977;-77
2024/04/21 12:45:13;;;;;;;;;;;12.20;92.30;;;;;;5464053;26;19967;-77
2024/04/21 12:47:39;;;;;;;;;;;12.30;90.60;;;;;;5434259;26;20369;-77
2024/04/21 12:50:05;;;;;;;;;;;12.40;90.90;;;;;;5457987;26;19932;-77
2024/04/21 12:52:31;;;;;;;;;;;12.20;87.50;;;;;;5427810;26;20252;-78
2024/04/21 12:54:57;;;;;;;;;;;11.90;89.00;;;;;;5427705;26;19928;-76
2024/04/21 12:57:23;;;;;;;;;;;11.70;90.00;;;;;;5427125;26;20358;-77
2024/04/21 12:59:48;;;;;;;;;;;11.60;89.10;;;;;;5460397;26;19961;-77
2024/04/21 13:02:16;;;;;;;;;;;11.70;90.10;;;;;;5457700;26;20318;-77
2024/04/21 13:04:42;;;;;;;;;;;12.00;91.10;;;;;;5457805;26;19928;-77
2024/04/21 13:07:08;;;;;;;;;;;12.00;89.40;;;;;;5427729;26;20442;-76
2024/04/21 13:09:34;;;;;;;;;;;11.70;85.90;;;;;;5458258;26;19928;-79
2024/04/21 13:12:00;;;;;;;;;;;11.40;87.10;;;;;;5432869;26;19928;-77
2024/04/21 13:14:25;;;;;;;;;;;11.20;88.70;;;;;;5428498;26;19996;-77
2024/04/21 13:16:51;;;;;;;;;;;11.20;90.60;;;;;;5458288;26;19936;-78
2024/04/21 13:19:18;;;;;;;;;;;11.20;89.70;;;;;;5427613;26;19936;-77
2024/04/21 13:21:46;;;;;;;;;;;11.00;88.00;;;;;;5450956;26;20405;-78
2024/04/21 13:24:11;;;;;;;;;;;11.20;90.30;;;;;;5428221;26;19928;-76
2024/04/21 13:26:37;;;;;;;;;;;11.50;90.40;;;;;;5429113;26;20314;-77
2024/04/21 13:29:03;;;;;;;;;;;11.80;86.80;;;;;;5424775;26;19928;-78
2024/04/21 13:31:28;;;;;;;;;;;11.90;87.10;;;;;;5435516;26;20000;-78
2024/04/21 13:33:55;;;;;;;;;;;12.30;87.00;;;;;;5461400;26;19936;-78
2024/04/21 13:36:21;;;;;;;;;;;12.60;85.40;;;;;;5446449;26;19935;-77
2024/04/21 13:38:46;;;;;;;;;;;12.90;84.50;;;;;;5461248;26;19928;-77
2024/04/21 13:41:12;;;;;;;;;;;13.10;84.30;;;;;;5492765;26;19932;-77
2024/04/21 13:43:38;;;;;;;;;;;13.10;82.50;;;;;;5460654;26;19935;-77
2024/04/21 13:46:03;;;;;;;;;;;12.90;82.20;;;;;;5493167;26;19940;-78
2024/04/21 13:48:29;;;;;;;;;;;12.50;82.60;;;;;;5461054;26;19940;-77
2024/04/21 13:50:55;;;;;;;;;;;12.30;83.40;;;;;;5481046;26;19931;-78
2024/04/21 13:53:20;;;;;;;;;;;12.30;84.80;;;;;;5430250;26;19935;-78
2024/04/21 13:55:48;;;;;;;;;;;12.20;85.90;;;;;;5429557;26;19928;-78
2024/04/21 13:58:14;;;;;;;;;;;11.90;81.80;;;;;;5489537;26;19968;-78
2024/04/21 14:00:40;;;;;;;;;;;12.10;84.50;;;;;;5430205;26;19928;-78
2024/04/21 14:03:05;;;;;;;;;;;12.30;84.90;;;;;;5459813;26;19928;-78
2024/04/21 14:05:31;;;;;;;;;;;12.60;81.70;;;;;;5438040;26;19938;-78
2024/04/21 14:07:56;;;;;;;;;;;12.90;83.50;;;;;;5466665;26;19934;-77
2024/04/21 14:10:22;;;;;;;;;;;13.30;82.90;;;;;;5414256;26;19932;-77
2024/04/21 14:12:49;;;;;;;;;;;13.80;84.10;;;;;;5460189;26;19929;-77
2024/04/21 14:15:14;;;;;;;;;;;14.10;82.60;;;;;;5465534;26;19939;-77
2024/04/21 14:17:40;;;;;;;;;;;14.50;76.50;;;;;;5468625;26;19927;-77
2024/04/21 14:20:06;;;;;;;;;;;14.70;80.40;;;;;;5430383;26;19932;-77
2024/04/21 14:22:32;;;;;;;;;;;14.70;74.40;;;;;;5459473;26;19927;-77
2024/04/21 14:24:57;;;;;;;;;;;13.90;75.90;;;;;;5429880;26;19997;-78
2024/04/21 14:27:23;;;;;;;;;;;13.90;79.00;;;;;;5400535;26;19928;-77